Flight Track Log - Related Links

Times and Time Zones

All times are in EDT time to prevent confusion due to time zone crossing. See the N231NU flight status page for this flight to view local times or setup timezone preferences in your user account.

Time Position Orientation Groundspeed Altitude Reporting Facility
EDT Latitude Longitude Course Direction KTS MPH feet Rate Location/Type
Sun 06:12:05 PM 43.1000 -88.0333 180° South 99 114 1,100  Level KMKE
Sun 06:13:29 PM 43.0833 -88.0333 180° South 110 127 2,900 1,134 Climbing KMKE
Sun 06:14:12 PM 43.0664 -88.0136 140° Southeast 103 119 3,500 1,143 Climbing Chicago Center
Sun 06:15:14 PM 43.0472 -87.9706 121° Southeast 104 120 4,900 1,258 Climbing Chicago Center
Sun 06:16:16 PM 43.0300 -87.9356 124° Southeast 109 125 6,100 1,161 Climbing Chicago Center
Sun 06:17:18 PM 43.0131 -87.9008 124° Southeast 109 125 7,300 1,104 Climbing Chicago Center
Sun 06:18:21 PM 42.9983 -87.8597 116° Southeast 118 136 8,400 1,104 Climbing Chicago Center
Sun 06:19:23 PM 42.9858 -87.8131 110° East 127 146 9,600 1,210 Climbing Chicago Center
Sun 06:20:25 PM 42.9678 -87.7564 114° Southeast 133 153 10,900 726 Climbing Chicago Center
Sun 06:21:27 PM 42.9594 -87.6983 101° East 163 188 11,100 97 Climbing Chicago Center
Sun 06:22:29 PM 42.9600 -87.6342 89° East 169 194 11,100 -48 Level Chicago Center
Sun 06:23:31 PM 42.9617 -87.5656 88° East 178 205 11,000 581 Descending Chicago Center
Sun 06:24:33 PM 42.9631 -87.5053 88° East 162 186 12,300 968 Climbing Chicago Center
Sun 06:25:35 PM 42.9619 -87.4503 92° East 149 171 13,000 339 Climbing Chicago Center
Sun 06:26:37 PM 42.9631 -87.3697 89° East 185 213 13,000  Level Chicago Center
Sun 06:27:39 PM 42.9678 -87.2944 85° East 196 226 13,000  Level Chicago Center
Sun 06:28:42 PM 42.9689 -87.2233 89° East 195 224 13,000  Level Chicago Center
Sun 06:29:44 PM 42.9711 -87.1497 88° East 194 223 13,000  Level Chicago Center
Sun 06:30:46 PM 42.9736 -87.0767 87° East 194 223 13,000  Level Chicago Center
Sun 06:31:48 PM 42.9764 -86.9886 88° East 194 223 13,000  Level Chicago Center
Sun 06:32:50 PM 42.9878 -86.9211 77° East 188 216 13,000  Level Chicago Center
Sun 06:33:52 PM 43.0033 -86.8514 73° East 187 215 13,000  Level Chicago Center
Sun 06:34:54 PM 43.0175 -86.7819 74° East 188 216 13,000  Level Chicago Center
Sun 06:35:56 PM 43.0311 -86.7136 75° East 188 216 13,000  Level Chicago Center
Sun 06:36:58 PM 43.0467 -86.6425 73° East 188 216 13,000  Level Chicago Center
Sun 06:38:01 PM 43.0633 -86.5625 74° East 188 216 13,000  Level Chicago Center
Sun 06:39:03 PM 43.0772 -86.4936 75° East 188 216 13,000  Level Chicago Center
Sun 06:41:11 PM 43.1061 -86.3558 74° East 188 216 13,000  Level Cleveland Center
Sun 06:42:13 PM 43.1228 -86.2728 75° East 188 216 13,000  Level Cleveland Center
Sun 06:43:11 PM 43.1347 -86.2189 73° East 188 216 13,000  Level Chicago Center
Sun 06:44:13 PM 43.1508 -86.1364 75° East 188 216 13,000  Level Chicago Center
Sun 06:45:15 PM 43.1650 -86.0667 74° East 188 216 13,000  Level Chicago Center
Sun 06:46:17 PM 43.1739 -85.9944 80° East 189 217 13,000  Level Chicago Center
Sun 06:47:20 PM 43.1731 -85.9192 91° East 193 222 13,000  Level Chicago Center
Sun 06:48:22 PM 43.1744 -85.8444 89° East 193 222 13,000  Level Chicago Center
Sun 06:49:24 PM 43.1756 -85.7706 89° East 193 222 13,000  Level Chicago Center
Sun 06:50:26 PM 43.1767 -85.6972 89° East 193 222 13,000  Level Chicago Center
Sun 06:51:28 PM 43.1783 -85.6083 88° East 193 222 13,000  Level Chicago Center
Sun 06:52:30 PM 43.1797 -85.5339 89° East 193 222 13,000  Level Chicago Center
Sun 06:53:32 PM 43.1808 -85.4583 89° East 194 223 13,000  Level Chicago Center
Sun 06:54:34 PM 43.1811 -85.3833 90° East 195 224 13,000  Level Chicago Center
Sun 06:55:36 PM 43.1828 -85.3097 88° East 195 224 13,000  Level Chicago Center
Sun 06:56:39 PM 43.1836 -85.2342 89° East 196 226 13,000  Level Chicago Center
Sun 06:57:41 PM 43.1847 -85.1458 89° East 196 226 13,000  Level Chicago Center
Sun 06:58:43 PM 43.1853 -85.0706 89° East 196 226 13,000  Level Chicago Center
Sun 06:59:45 PM 43.1867 -84.9958 89° East 196 226 13,000  Level Chicago Center
Sun 07:00:47 PM 43.1869 -84.9197 90° East 197 227 13,000  Level Chicago Center
Sun 07:01:49 PM 43.1881 -84.8450 89° East 197 227 13,000  Level Chicago Center
Sun 07:02:51 PM 43.1883 -84.7686 90° East 198 228 13,000 48 Level Chicago Center
Sun 07:03:53 PM 43.1892 -84.6783 89° East 198 228 13,100 48 Climbing Chicago Center
Sun 07:04:55 PM 43.1903 -84.6036 89° East 197 227 13,100  Level Chicago Center
Sun 07:05:57 PM 43.1908 -84.5289 89° East 197 227 13,100  Level Chicago Center
Sun 07:06:59 PM 43.1903 -84.4528 91° East 197 227 13,100  Level Chicago Center
Sun 07:08:05 PM 43.1900 -84.3628 90° East 198 228 13,100  Level Cleveland Center
Sun 07:09:08 PM 43.1903 -84.2908 90° East 198 228 13,100  Level Cleveland Center
Sun 07:10:10 PM 43.1908 -84.2158 89° East 198 228 13,100  Level Cleveland Center
Sun 07:11:12 PM 43.1914 -84.1397 89° East 198 228 13,100  Level Cleveland Center
Sun 07:12:14 PM 43.1914 -84.0656 90° East 198 228 13,100  Level Cleveland Center
Sun 07:13:16 PM 43.1925 -83.9756 89° East 198 228 13,100  Level Cleveland Center
Sun 07:14:18 PM 43.1911 -83.9008 91° East 198 228 13,100  Level Cleveland Center
Sun 07:15:20 PM 43.1908 -83.8267 90° East 198 228 13,100  Level Cleveland Center
Sun 07:16:22 PM 43.1914 -83.7522 89° East 197 227 13,100  Level Cleveland Center
Sun 07:17:24 PM 43.1917 -83.6781 90° East 197 227 13,100  Level Cleveland Center
Sun 07:18:26 PM 43.1919 -83.6036 90° East 197 227 13,100  Level Cleveland Center
Sun 07:19:28 PM 43.1908 -83.5125 91° East 197 227 13,100  Level Cleveland Center
Sun 07:20:30 PM 43.1911 -83.4383 90° East 197 227 13,100  Level Cleveland Center
Sun 07:21:32 PM 43.1914 -83.3636 90° East 197 227 13,100  Level Cleveland Center
Sun 07:22:34 PM 43.1903 -83.2892 91° East 197 227 13,100  Level Cleveland Center
Sun 07:23:36 PM 43.1900 -83.2131 90° East 197 227 13,100  Level Cleveland Center
Sun 07:24:38 PM 43.1900 -83.1381 90° East 197 227 13,100  Level Cleveland Center
Sun 07:25:40 PM 43.1892 -83.0478 91° East 197 227 13,100  Level Cleveland Center
Sun 07:26:42 PM 43.1886 -82.9733 91° East 197 227 13,100  Level Cleveland Center
Sun 07:27:43 PM 43.1881 -82.8969 91° East 197 227 13,100  Level Cleveland Center
Sun 07:28:45 PM 43.1875 -82.8222 91° East 197 227 13,100  Level Cleveland Center
Sun 07:29:48 PM 43.1869 -82.7469 91° East 197 227 13,100  Level Cleveland Center
Sun 07:30:49 PM 43.1858 -82.6700 91° East 199 229 13,100  Level Cleveland Center
Sun 07:31:51 PM 43.1858 -82.5939 90° East 200 230 13,100  Level Cleveland Center
Sun 07:32:53 PM 43.1839 -82.5031 92° East 199 229 13,100  Level Cleveland Center
Sun 07:33:55 PM 43.1839 -82.4292 90° East 199 229 13,100  Level Cleveland Center
Sun 07:34:57 PM 43.1831 -82.3525 91° East 199 229 13,100 -61 Level Cleveland Center
Sun 07:35:34 PM 43.1667 -82.2833 108° East 200 230 13,000 -62 Descending Toronto Center
Sun 07:36:34 PM 43.1667 -82.2167 90° East 200 230 13,000  Level Toronto Center
Sun 07:37:34 PM 43.1667 -82.1500 90° East 200 230 13,000  Level Toronto Center
Sun 07:38:34 PM 43.1667 -82.0500 90° East 200 230 13,000  Level Toronto Center
Sun 07:39:34 PM 43.1500 -81.9833 109° East 200 230 13,000  Level Toronto Center
Sun 07:40:34 PM 43.1500 -81.9167 90° East 200 230 13,000  Level Toronto Center
Sun 07:41:34 PM 43.1667 -81.8500 71° East 200 230 13,000  Level Toronto Center
Sun 07:42:34 PM 43.1667 -81.7667 90° East 200 230 13,000  Level Toronto Center
Sun 07:43:34 PM 43.1667 -81.6833 90° East 200 230 13,000  Level Toronto Center
Sun 07:44:34 PM 43.1667 -81.6167 90° East 200 230 13,000  Level Toronto Center
Sun 07:45:34 PM 43.1500 -81.5333 105° East 190 219 13,000  Level Toronto Center
Sun 07:46:34 PM 43.1500 -81.4667 90° East 190 219 13,000  Level Toronto Center
Sun 07:47:34 PM 43.1500 -81.4000 90° East 190 219 13,000  Level Toronto Center
Sun 07:48:34 PM 43.1500 -81.3167 90° East 190 219 13,000  Level Toronto Center
Sun 07:49:34 PM 43.1500 -81.2500 90° East 190 219 13,000  Level Toronto Center
Sun 07:50:34 PM 43.1500 -81.1667 90° East 190 219 13,000  Level Toronto Center
Sun 07:51:34 PM 43.1500 -81.1000 90° East 190 219 13,000  Level Toronto Center
Sun 07:52:34 PM 43.1333 -81.0333 109° East 200 230 13,000  Level Toronto Center
Sun 07:53:34 PM 43.1333 -80.9500 90° East 200 230 13,000  Level Toronto Center
Sun 07:55:34 PM 43.1500 -80.8000 81° East 190 219 13,000  Level Toronto Center
Sun 07:56:34 PM 43.1500 -80.7333 90° East 190 219 13,000  Level Toronto Center
Sun 07:57:34 PM 43.1500 -80.6667 90° East 190 219 13,000  Level Toronto Center
Sun 07:58:34 PM 43.1333 -80.5667 103° East 200 230 13,000  Level Toronto Center
Sun 07:59:34 PM 43.1333 -80.5000 90° East 200 230 13,000  Level Toronto Center
Sun 08:00:34 PM 43.1333 -80.4333 90° East 200 230 13,000  Level Toronto Center
Sun 08:01:34 PM 43.1333 -80.3333 90° East 190 219 13,000  Level Toronto Center
Sun 08:02:34 PM 43.1333 -80.2667 90° East 200 230 13,000  Level Toronto Center
Sun 08:03:34 PM 43.1333 -80.2000 90° East 190 219 13,000  Level Toronto Center
Sun 08:04:34 PM 43.1167 -80.1333 109° East 190 219 13,000  Level Toronto Center
Sun 08:05:34 PM 43.1167 -80.0667 90° East 190 219 13,000  Level Toronto Center
Sun 08:06:34 PM 43.1167 -79.9833 90° East 190 219 13,000  Level Toronto Center
Sun 08:07:34 PM 43.1167 -79.9000 90° East 190 219 13,000  Level Toronto Center
Sun 08:08:34 PM 43.1167 -79.8333 90° East 190 219 13,000  Level Toronto Center
Sun 08:09:34 PM 43.1167 -79.7667 90° East 190 219 13,000  Level Toronto Center
Sun 08:10:34 PM 43.1167 -79.7000 90° East 200 230 13,000  Level Toronto Center
Sun 08:11:34 PM 43.1000 -79.6167 105° East 190 219 13,000  Level Toronto Center
Sun 08:12:34 PM 43.1000 -79.5500 90° East 190 219 13,000  Level Toronto Center
Sun 08:13:34 PM 43.1000 -79.4667 90° East 190 219 13,000  Level Toronto Center
Sun 08:14:34 PM 43.1000 -79.4000 90° East 190 219 13,000  Level Toronto Center
Sun 08:15:34 PM 43.1000 -79.3167 90° East 200 230 13,000  Level Toronto Center
Sun 08:16:34 PM 43.1000 -79.2500 90° East 200 230 13,000  Level Toronto Center
Sun 08:17:34 PM 43.0833 -79.1833 109° East 200 230 13,000  Level Toronto Center
Sun 08:18:34 PM 43.0833 -79.1000 90° East 200 230 13,000 50 Level Toronto Center
Sun 08:19:34 PM 43.0833 -79.0167 90° East 200 230 13,100 50 Climbing Toronto Center
Sun 08:20:34 PM 43.0833 -78.9500 90° East 200 230 13,100  Level Toronto Center
Sun 08:21:34 PM 43.0833 -78.8833 90° East 200 230 13,100  Level Toronto Center
Sun 08:22:34 PM 43.0833 -78.7833 90° East 200 230 13,100  Level Toronto Center
Sun 08:23:34 PM 43.0667 -78.7167 109° East 200 230 13,100  Level Toronto Center
Sun 08:24:34 PM 43.0667 -78.6500 90° East 200 230 13,100  Level Toronto Center
Sun 08:25:34 PM 43.0667 -78.5833 90° East 200 230 13,100  Level Toronto Center
Sun 08:26:34 PM 43.0500 -78.5000 105° East 200 230 13,100  Level Toronto Center
Sun 08:27:34 PM 43.0500 -78.4167 90° East 200 230 13,100  Level Toronto Center
Sun 08:28:34 PM 43.0500 -78.3500 90° East 200 230 13,100  Level Toronto Center
Sun 08:29:34 PM 43.0333 -78.2833 109° East 200 230 13,100  Level Toronto Center
Sun 08:30:34 PM 43.0333 -78.2000 90° East 200 230 13,100  Level Toronto Center
Sun 08:31:04 PM 43.0525 -78.1894 22° Northeast 197 227 13,100  Level Cleveland Center
Sun 08:32:05 PM 43.0489 -78.1136 94° East 199 229 13,100  Level Cleveland Center
Sun 08:33:07 PM 43.0442 -78.0381 95° East 199 229 13,100  Level Cleveland Center
Sun 08:34:09 PM 43.0414 -77.9628 93° East 199 229 13,100  Level Cleveland Center
Sun 08:35:11 PM 43.0367 -77.8883 95° East 199 229 13,100  Level Cleveland Center
Sun 08:36:13 PM 43.0322 -77.7975 94° East 199 229 13,100  Level Cleveland Center
Sun 08:37:14 PM 43.0283 -77.7208 94° East 199 229 13,100  Level Cleveland Center
Sun 08:38:16 PM 43.0242 -77.6453 94° East 199 229 13,100  Level Cleveland Center
Sun 08:39:18 PM 43.0200 -77.5692 94° East 199 229 13,100  Level Cleveland Center
Sun 08:40:20 PM 43.0169 -77.4922 93° East 199 229 13,100  Level Cleveland Center
Sun 08:41:22 PM 43.0122 -77.4158 95° East 199 229 13,100  Level Cleveland Center
Sun 08:42:23 PM 43.0075 -77.3394 95° East 200 230 13,100  Level Cleveland Center
Sun 08:43:25 PM 43.0028 -77.2633 95° East 200 230 13,100  Level Cleveland Center
Sun 08:44:27 PM 42.9981 -77.1722 94° East 200 230 13,100  Level Cleveland Center
Sun 08:45:29 PM 42.9933 -77.0956 95° East 200 230 13,100  Level Cleveland Center
Sun 08:46:30 PM 42.9889 -77.0186 94° East 200 230 13,100  Level Cleveland Center
Sun 08:47:32 PM 42.9844 -76.9425 95° East 201 231 13,100  Level Cleveland Center
Sun 08:48:34 PM 42.9797 -76.8664 95° East 201 231 13,100  Level Cleveland Center
Sun 08:49:35 PM 42.9750 -76.7897 95° East 201 231 13,100 -49 Level Cleveland Center
Sun 08:50:37 PM 42.9694 -76.7019 95° East 201 231 13,000 -48 Descending Cleveland Center
Sun 08:51:39 PM 42.9650 -76.6275 95° East 201 231 13,000  Level Cleveland Center
Sun 08:52:40 PM 42.9603 -76.5519 95° East 201 231 13,000  Level Cleveland Center
Sun 08:53:42 PM 42.9556 -76.4761 95° East 201 231 13,000  Level Cleveland Center
Sun 08:54:43 PM 42.9508 -76.4008 95° East 200 230 13,000  Level Cleveland Center
Sun 08:55:45 PM 42.9458 -76.3244 95° East 201 231 13,000  Level Cleveland Center
Sun 08:56:52 PM 42.9408 -76.2342 94° East 202 232 13,000  Level Boston Center
Sun 08:57:53 PM 42.9347 -76.1589 96° East 201 231 13,000  Level Boston Center
Sun 08:58:53 PM 42.9300 -76.0833 95° East 201 231 13,000  Level Boston Center
Sun 08:59:18 PM 42.9278 -76.0539 96° East 201 231 13,000  Level Boston Center
Sun 09:00:18 PM 42.9231 -75.9775 95° East 201 231 13,000  Level Boston Center
Sun 09:01:19 PM 42.9178 -75.9033 96° East 201 231 13,000 50 Level Boston Center
Sun 09:02:19 PM 42.9119 -75.8269 96° East 200 230 13,100 50 Climbing Boston Center
Sun 09:03:20 PM 42.9061 -75.7531 96° East 200 230 13,100  Level Boston Center
Sun 09:04:20 PM 42.9017 -75.6769 95° East 201 231 13,100  Level Boston Center
Sun 09:05:24 PM 42.8961 -75.6017 96° East 201 231 13,100  Level Boston Center
Sun 09:06:22 PM 42.8911 -75.5292 95° East 200 230 13,100 50 Level Boston Center
Sun 09:07:24 PM 42.8842 -75.4394 96° East 199 229 13,200 48 Climbing Boston Center
Sun 09:08:26 PM 42.8789 -75.3644 95° East 199 229 13,200  Level Boston Center
Sun 09:09:27 PM 42.8728 -75.2894 96° East 199 229 13,200  Level Boston Center
Sun 09:10:28 PM 42.8672 -75.2150 96° East 199 229 13,200  Level Boston Center
Sun 09:11:28 PM 42.8617 -75.1403 96° East 199 229 13,200 -65 Level Boston Center
Sun 09:12:01 PM 42.8575 -75.0939 97° East 201 231 13,100  Descending Boston Center
Sun 09:12:29 PM 42.8561 -75.0658 94° East 199 229 13,200  Climbing Boston Center
Sun 09:13:03 PM 42.8533 -75.0161 94° East 202 232 13,100  Descending Boston Center
Sun 09:13:30 PM 42.8503 -74.9900 99° East 199 229 13,200 -200 Climbing Boston Center
Sun 09:14:03 PM 42.8464 -74.9406 96° East 201 231 12,900 -400 Descending Boston Center
Sun 09:14:30 PM 42.8436 -74.9136 98° East 200 230 12,800 -600 Descending Boston Center
Sun 09:15:03 PM 42.8400 -74.8619 95° East 207 238 12,300 -590 Descending Boston Center
Sun 09:15:31 PM 42.8378 -74.8361 97° East 205 236 12,200 -571 Descending Boston Center
Sun 09:16:06 PM 42.8331 -74.7864 97° East 209 241 11,700 -581 Descending Boston Center
Sun 09:16:33 PM 42.8314 -74.7478 93° East 208 239 11,600 -492 Descending Boston Center
Sun 09:17:07 PM 42.8267 -74.7081 99° East 204 235 11,200 -393 Descending Boston Center
Sun 09:17:34 PM 42.8242 -74.6733 96° East 199 229 11,200 -91 Level Boston Center
Sun 09:18:13 PM 42.8211 -74.6242 95° East 193 222 11,100  Descending Boston Center
Sun 09:18:35 PM 42.8183 -74.5969 98° East 191 220 11,200  Climbing Boston Center
Sun 09:19:12 PM 42.8144 -74.5575 98° East 179 206 11,100 -295 Descending Boston Center
Sun 09:19:36 PM 42.8136 -74.5297 92° East 181 208 10,900 -689 Descending Boston Center
Sun 09:20:13 PM 42.8153 -74.4847 87° East 196 226 10,400 -590 Descending Boston Center
Sun 09:20:37 PM 42.8175 -74.4550 84° East 194 223 10,300 -800 Descending Boston Center
Sun 09:21:13 PM 42.8183 -74.4128 88° East 194 223 9,600 -1,000 Descending Boston Center
Sun 09:21:37 PM 42.8200 -74.3836 86° East 191 220 9,300 -885 Descending Boston Center
Sun 09:22:14 PM 42.8206 -74.3433 89° East 186 214 8,700 -787 Descending Boston Center
Sun 09:22:38 PM 42.8208 -74.3136 89° East 187 215 8,500 -590 Descending Boston Center
Sun 09:23:15 PM 42.8208 -74.2733 90° East 184 212 8,100 -689 Descending Boston Center
Sun 09:23:39 PM 42.8217 -74.2453 88° East 182 209 7,800 -600 Descending Boston Center
Sun 09:24:15 PM 42.8206 -74.2061 92° East 178 205 7,500 -689 Descending Boston Center
Sun 09:24:40 PM 42.8225 -74.1736 85° East 177 204 7,100 -885 Descending Boston Center
Sun 09:25:16 PM 42.8233 -74.1339 88° East 174 200 6,600 -787 Descending Boston Center
Sun 09:25:41 PM 42.8228 -74.1075 92° East 176 203 6,300 -689 Descending Boston Center
Sun 09:26:17 PM 42.8225 -74.0694 91° East 174 200 5,900 -787 Descending Boston Center
Sun 09:26:42 PM 42.8258 -74.0433 80° East 174 200 5,500 -787 Descending Boston Center
Sun 09:27:18 PM 42.8294 -74.0078 82° East 167 192 5,100 -600 Descending Boston Center
Sun 09:27:42 PM 42.8336 -73.9817 78° East 169 194 4,900 -700 Descending Boston Center
Sun 09:28:18 PM 42.8408 -73.9472 74° East 163 188 4,400 -885 Descending Boston Center
Sun 09:28:43 PM 42.8439 -73.9211 81° East 166 191 4,000 -871 Descending Boston Center
Sun 09:29:20 PM 42.8503 -73.8833 77° East 167 192 3,500 -787 Descending Boston Center
Sun 09:29:44 PM 42.8533 -73.8589 80° East 166 191 3,200 -400 Descending Boston Center
Sun 09:30:20 PM 42.8594 -73.8222 77° East 165 190 3,100 -194 Descending Boston Center
Sun 09:30:46 PM 42.8594 -73.7989 90° East 161 185 3,000 -203 Descending Boston Center
Sun 09:31:19 PM 42.8508 -73.7639 109° East 157 181 2,900 -98 Descending Boston Center
Sun 09:31:47 PM 42.8425 -73.7389 114° Southeast 158 182 2,900 -194 Level Boston Center
Sun 09:32:21 PM 42.8214 -73.7247 154° Southeast 157 181 2,700 -310 Descending Boston Center
Sun 09:32:45 PM 42.8028 -73.7142 157° South 158 182 2,600 -295 Descending Boston Center
Sun 09:33:22 PM 42.7794 -73.7078 169° South 146 168 2,400 -469 Descending Boston Center
Sun 09:33:49 PM 42.7642 -73.7108 188° South 138 159 2,100 -778 Descending Boston Center
Sun 09:34:16 PM 42.7517 -73.7189 205° Southwest 103 119 1,700 -787 Descending Boston Center
Sun 09:34:50 PM 42.7506 -73.7350 265° West 90 104 1,300 -581 Descending Boston Center
Sun 09:35:18 PM 42.7492 -73.7442 258° West 58 67 1,100 -414 Descending Boston Center
Sun 09:35:48 PM 42.7503 -73.7600 275° West 70 81 900 -400 Descending Boston Center
Sun 09:36:18 PM 42.7486 -73.7703 258° West 63 72 700 -393 Descending Boston Center
Sun 09:36:49 PM 42.7497 -73.7861 275° West 70 81 500 -387 Descending Boston Center

Login

Don't have an account? Register now (free) for customized features, flight alerts, and more!